Time;durP1;ratioP1;P1;durP2;ratioP2;P2;SDS_P1;SDS_P2;PMS_P1;PMS_P2;Temp;Humidity;BMP_temperature;BMP_pressure;BME280_temperature;BME280_humidity;BME280_pressure;Samples;Min_cycle;Max_cycle;Signal;HPM_P1;HPM_P2
2022/10/27 00:01:38;;;;;;;21.73;8.73;;;;;12.00;94870.00;;;;7393440;19;20155;-75
2022/10/27 00:04:13;;;;;;;19.02;7.72;;;;;12.10;94868.00;;;;7392228;19;20161;-75
2022/10/27 00:06:53;;;;;;;27.63;8.25;;;;;12.00;94863.00;;;;7392364;19;20149;-75
2022/10/27 00:09:30;;;;;;;16.27;8.00;;;;;11.90;94867.00;;;;7393023;19;20199;-75
2022/10/27 00:11:58;;;;;;;20.08;7.85;;;;;11.90;94865.00;;;;7395621;19;20205;-76
2022/10/27 00:14:25;;;;;;;23.08;8.07;;;;;11.90;94862.00;;;;7393191;19;20141;-75
2022/10/27 00:16:58;;;;;;;25.15;8.38;;;;;11.80;94862.00;;;;7394892;19;20146;-75
2022/10/27 00:19:26;;;;;;;18.77;7.07;;;;;11.80;94858.00;;;;7392603;19;20152;-75
2022/10/27 00:21:53;;;;;;;21.42;6.97;;;;;11.80;94862.00;;;;7394830;19;20141;-74
2022/10/27 00:24:27;;;;;;;26.08;7.68;;;;;11.90;94861.00;;;;7391580;19;20654;-77
2022/10/27 00:26:55;;;;;;;13.13;6.93;;;;;11.80;94871.00;;;;7392362;19;20137;-75
2022/10/27 00:29:22;;;;;;;17.80;7.00;;;;;11.90;94869.00;;;;7392912;19;20131;-75
2022/10/27 00:31:56;;;;;;;16.83;7.80;;;;;11.80;94866.00;;;;7391787;19;20642;-75
2022/10/27 00:34:30;;;;;;;19.63;7.10;;;;;11.90;94873.00;;;;7392932;19;20131;-76
2022/10/27 00:36:58;;;;;;;20.17;7.63;;;;;11.90;94882.00;;;;7397297;19;20129;-76
2022/10/27 00:39:32;;;;;;;23.67;7.65;;;;;11.80;94879.00;;;;7391533;19;20200;-77
2022/10/27 00:41:59;;;;;;;18.60;7.97;;;;;11.70;94876.00;;;;7395068;19;20153;-75
2022/10/27 00:44:38;;;;;;;18.92;7.10;;;;;11.70;94874.00;;;;7390111;19;20133;-76
2022/10/27 00:47:21;;;;;;;22.95;8.27;;;;;11.70;94875.00;;;;7393722;19;20232;-74
2022/10/27 00:50:00;;;;;;;14.73;6.53;;;;;11.60;94876.00;;;;7391150;19;20125;-74
2022/10/27 00:52:40;;;;;;;16.58;6.75;;;;;11.30;94870.00;;;;7391216;19;20480;-75
2022/10/27 00:55:19;;;;;;;14.13;6.63;;;;;11.30;94861.00;;;;7391619;19;20204;-76
2022/10/27 00:57:56;;;;;;;16.40;7.65;;;;;11.30;94872.00;;;;7390735;19;20127;-77
2022/10/27 01:00:23;;;;;;;21.65;7.35;;;;;11.30;94870.00;;;;7392446;19;20140;-80
2022/10/27 01:02:54;;;;;;;17.38;6.78;;;;;11.30;94868.00;;;;7391247;19;20570;-80
2022/10/27 01:05:41;;;;;;;19.92;6.80;;;;;11.20;94868.00;;;;7392398;19;20144;-79
2022/10/27 01:08:16;;;;;;;17.80;7.28;;;;;11.10;94875.00;;;;7391411;19;20129;-78
2022/10/27 01:10:54;;;;;;;22.45;6.90;;;;;11.00;94880.00;;;;7392865;19;20148;-79
2022/10/27 01:13:22;;;;;;;21.25;7.20;;;;;11.10;94878.00;;;;7392929;19;20140;-78
2022/10/27 01:16:10;;;;;;;18.30;7.32;;;;;11.10;94873.00;;;;7389261;19;20488;-79
2022/10/27 01:19:06;;;;;;;24.13;7.80;;;;;11.00;94870.00;;;;7387549;19;20157;-79
2022/10/27 01:21:49;;;;;;;14.65;7.22;;;;;11.00;94868.00;;;;7389352;19;20160;-79
2022/10/27 01:24:46;;;;;;;21.17;7.43;;;;;10.90;94857.00;;;;7389528;19;20675;-77
2022/10/27 01:27:52;;;;;;;18.40;7.03;;;;;10.90;94856.00;;;;7389270;19;20631;-80
2022/10/27 01:30:29;;;;;;;21.40;7.28;;;;;11.10;94859.00;;;;7389291;19;20168;-78
2022/10/27 01:33:23;;;;;;;20.85;7.47;;;;;11.00;94861.00;;;;7389939;19;20476;-80
2022/10/27 01:36:21;;;;;;;19.67;8.38;;;;;11.40;94864.00;;;;7391285;19;20149;-79
2022/10/27 01:39:01;;;;;;;26.50;7.90;;;;;11.50;94868.00;;;;7390261;19;20120;-77
2022/10/27 01:42:18;;;;;;;19.55;8.50;;;;;11.70;94857.00;;;;7393887;19;20484;-79
2022/10/27 01:44:56;;;;;;;19.40;8.10;;;;;11.60;94860.00;;;;7389704;19;20141;-79
2022/10/27 01:47:30;;;;;;;19.35;7.78;;;;;11.60;94855.00;;;;7389789;19;20604;-79
2022/10/27 01:49:57;;;;;;;24.27;8.43;;;;;11.50;94859.00;;;;7388303;19;20141;-77
2022/10/27 01:52:42;;;;;;;25.27;7.85;;;;;11.50;94853.00;;;;7387847;19;20203;-79
2022/10/27 01:55:49;;;;;;;18.65;7.13;;;;;11.50;94857.00;;;;7390110;19;20224;-79
2022/10/27 01:58:42;;;;;;;17.77;6.97;;;;;11.40;94844.00;;;;7390779;19;20120;-79
2022/10/27 02:01:16;;;;;;;20.40;7.53;;;;;11.50;94838.00;;;;7391010;19;20479;-78
2022/10/27 02:04:15;;;;;;;15.75;6.75;;;;;11.50;94845.00;;;;7389002;19;20604;-78
2022/10/27 02:07:30;;;;;;;22.85;7.53;;;;;11.40;94855.00;;;;7390627;19;20187;-80
2022/10/27 02:10:13;;;;;;;20.08;7.78;;;;;11.30;94856.00;;;;7389674;19;20196;-78
2022/10/27 02:12:50;;;;;;;13.63;6.97;;;;;11.40;94854.00;;;;7389195;19;20141;-80
2022/10/27 02:15:27;;;;;;;17.50;6.80;;;;;11.60;94842.00;;;;7389593;19;20132;-79
2022/10/27 02:18:13;;;;;;;18.30;6.35;;;;;11.70;94841.00;;;;7387630;19;20634;-80
2022/10/27 02:20:47;;;;;;;15.20;6.15;;;;;11.50;94836.00;;;;7391391;19;20164;-81
2022/10/27 02:23:24;;;;;;;14.80;6.68;;;;;11.40;94840.00;;;;7388604;19;20121;-80
2022/10/27 02:26:16;;;;;;;21.52;6.60;;;;;11.50;94837.00;;;;7393202;19;20633;-79
2022/10/27 02:28:55;;;;;;;14.48;6.53;;;;;11.60;94846.00;;;;7395248;19;20162;-77
2022/10/27 02:31:33;;;;;;;17.90;7.47;;;;;11.90;94845.00;;;;7398384;19;20150;-77
2022/10/27 02:34:08;;;;;;;18.15;7.97;;;;;12.20;94837.00;;;;7396161;19;20148;-77
2022/10/27 02:36:36;;;;;;;18.45;8.35;;;;;12.30;94841.00;;;;7398620;19;20133;-78
2022/10/27 02:39:03;;;;;;;24.48;10.00;;;;;12.40;94845.00;;;;7396674;19;20152;-78
2022/10/27 02:41:37;;;;;;;21.15;9.52;;;;;12.40;94837.00;;;;7399010;19;20133;-78
2022/10/27 02:44:04;;;;;;;26.63;11.50;;;;;12.40;94839.00;;;;7395201;19;20160;-78
2022/10/27 02:46:32;;;;;;;26.33;10.30;;;;;12.60;94841.00;;;;7397575;19;20145;-78
2022/10/27 02:49:13;;;;;;;29.23;9.95;;;;;12.50;94838.00;;;;7394156;19;20231;-79
2022/10/27 02:51:43;;;;;;;26.77;11.20;;;;;12.50;94846.00;;;;7397039;19;20145;-78
2022/10/27 02:54:16;;;;;;;23.73;11.00;;;;;12.50;94847.00;;;;7394308;19;20140;-79
2022/10/27 02:56:44;;;;;;;27.83;10.43;;;;;12.50;94843.00;;;;7397712;19;20153;-78
2022/10/27 02:59:11;;;;;;;19.98;9.63;;;;;12.60;94845.00;;;;7394905;19;20512;-79
2022/10/27 03:01:45;;;;;;;21.13;9.88;;;;;12.70;94848.00;;;;7396845;19;20560;-78
2022/10/27 03:04:13;;;;;;;25.67;9.70;;;;;12.70;94843.00;;;;7395133;19;20144;-77
2022/10/27 03:06:40;;;;;;;16.98;9.55;;;;;12.70;94841.00;;;;7395417;19;20965;-79
2022/10/27 03:09:29;;;;;;;21.83;10.32;;;;;12.80;94837.00;;;;7398586;19;20157;-78
2022/10/27 03:11:56;;;;;;;23.98;9.57;;;;;12.80;94835.00;;;;7399543;19;20694;-78
2022/10/27 03:14:30;;;;;;;22.77;9.65;;;;;13.00;94837.00;;;;7395004;19;20145;-77
2022/10/27 03:16:58;;;;;;;13.00;7.95;;;;;13.00;94839.00;;;;7399173;19;20663;-79
2022/10/27 03:19:25;;;;;;;16.52;8.60;;;;;13.00;94834.00;;;;7394878;19;20192;-79
2022/10/27 03:21:59;;;;;;;19.10;8.77;;;;;13.00;94840.00;;;;7400641;19;20603;-79
2022/10/27 03:24:27;;;;;;;15.68;8.52;;;;;12.90;94848.00;;;;7393682;19;20613;-79
2022/10/27 03:26:54;;;;;;;17.95;8.15;;;;;12.80;94842.00;;;;7397478;19;20152;-79
2022/10/27 03:29:31;;;;;;;25.00;8.20;;;;;12.90;94848.00;;;;7399841;19;20187;-78
2022/10/27 03:31:58;;;;;;;20.67;7.45;;;;;12.80;94843.00;;;;7393284;19;20452;-79
2022/10/27 03:34:26;;;;;;;18.48;7.85;;;;;13.00;94847.00;;;;7396879;19;20200;-79
2022/10/27 03:37:00;;;;;;;11.85;7.10;;;;;12.90;94844.00;;;;7392832;19;20624;-78
2022/10/27 03:39:28;;;;;;;17.38;7.32;;;;;13.00;94841.00;;;;7397309;19;20125;-79
2022/10/27 03:41:58;;;;;;;20.23;7.68;;;;;12.80;94839.00;;;;7393244;19;20144;-79
2022/10/27 03:44:32;;;;;;;23.00;7.80;;;;;12.80;94844.00;;;;7397380;19;20167;-79
2022/10/27 03:47:00;;;;;;;16.90;6.97;;;;;13.00;94855.00;;;;7392794;19;20137;-79
2022/10/27 03:49:27;;;;;;;17.65;7.05;;;;;13.00;94844.00;;;;7395566;19;20159;-77
2022/10/27 03:52:07;;;;;;;17.00;6.68;;;;;13.10;94847.00;;;;7391871;19;20524;-79
2022/10/27 03:54:35;;;;;;;15.18;6.68;;;;;13.00;94848.00;;;;7395740;19;20453;-78
2022/10/27 03:57:02;;;;;;;13.13;6.40;;;;;13.00;94855.00;;;;7392514;19;20151;-79
2022/10/27 03:59:36;;;;;;;18.00;6.60;;;;;13.00;94859.00;;;;7397030;19;20179;-80
2022/10/27 04:02:03;;;;;;;13.07;6.60;;;;;13.00;94855.00;;;;7393434;19;20200;-76
2022/10/27 04:04:41;;;;;;;15.07;5.72;;;;;12.90;94853.00;;;;7394463;19;20137;-78
2022/10/27 04:07:21;;;;;;;16.33;6.80;;;;;12.80;94857.00;;;;7390936;19;20151;-78
2022/10/27 04:09:55;;;;;;;19.20;7.05;;;;;12.70;94862.00;;;;7396339;19;20128;-79
2022/10/27 04:12:29;;;;;;;14.23;7.25;;;;;12.70;94861.00;;;;7392466;19;20121;-78
2022/10/27 04:14:56;;;;;;;12.00;6.63;;;;;12.60;94862.00;;;;7397249;19;20140;-79
2022/10/27 04:17:24;;;;;;;13.18;6.45;;;;;12.50;94854.00;;;;7392794;19;20127;-79
2022/10/27 04:20:01;;;;;;;18.38;6.13;;;;;12.20;94860.00;;;;7394261;19;20150;-79
2022/10/27 04:22:28;;;;;;;13.77;6.35;;;;;12.10;94859.00;;;;7390164;19;20538;-77
2022/10/27 04:24:56;;;;;;;14.70;6.50;;;;;12.00;94856.00;;;;7395587;19;20261;-80
2022/10/27 04:27:33;;;;;;;21.63;6.20;;;;;11.90;94856.00;;;;7394859;19;20225;-78
2022/10/27 04:30:06;;;;;;;14.02;6.30;;;;;11.90;94862.00;;;;7394531;19;20152;-80
2022/10/27 04:32:50;;;;;;;17.58;6.53;;;;;12.00;94859.00;;;;7394410;19;20160;-78
2022/10/27 04:35:17;;;;;;;12.88;6.10;;;;;12.10;94855.00;;;;7391304;19;20163;-78
2022/10/27 04:37:53;;;;;;;15.75;7.35;;;;;12.20;94867.00;;;;7394336;19;20476;-77
2022/10/27 04:40:21;;;;;;;17.48;6.90;;;;;12.30;94863.00;;;;7391403;19;20139;-77
2022/10/27 04:42:49;;;;;;;16.52;7.10;;;;;12.30;94866.00;;;;7394473;19;20255;-77
2022/10/27 04:45:25;;;;;;;15.85;7.43;;;;;12.50;94858.00;;;;7390829;19;20141;-77
2022/10/27 04:47:53;;;;;;;17.83;7.13;;;;;12.50;94862.00;;;;7390908;19;20161;-78
2022/10/27 04:50:21;;;;;;;16.95;7.10;;;;;12.40;94858.00;;;;7394244;19;20148;-76
2022/10/27 04:53:00;;;;;;;10.95;6.95;;;;;12.40;94856.00;;;;7391596;19;20653;-79
2022/10/27 04:55:30;;;;;;;16.77;7.03;;;;;12.30;94857.00;;;;7394911;19;20155;-77
2022/10/27 04:58:03;;;;;;;20.23;6.90;;;;;12.50;94856.00;;;;7395445;19;20133;-78
2022/10/27 05:00:41;;;;;;;17.70;7.03;;;;;12.50;94858.00;;;;7391896;19;20153;-77
2022/10/27 05:03:26;;;;;;;18.15;7.35;;;;;12.50;94853.00;;;;7392712;19;20128;-76
2022/10/27 05:06:00;;;;;;;17.48;7.20;;;;;12.60;94855.00;;;;7392533;19;20160;-77
2022/10/27 05:08:41;;;;;;;16.70;6.97;;;;;12.70;94854.00;;;;7390375;19;20136;-77
2022/10/27 05:11:09;;;;;;;17.33;6.75;;;;;12.70;94855.00;;;;7392519;19;20207;-77
2022/10/27 05:13:48;;;;;;;14.63;7.43;;;;;12.80;94853.00;;;;7392598;19;20154;-77
2022/10/27 05:16:18;;;;;;;13.75;7.30;;;;;12.90;94851.00;;;;7393135;19;20156;-76
2022/10/27 05:18:48;;;;;;;19.77;7.15;;;;;12.90;94849.00;;;;7390357;19;20156;-76
2022/10/27 05:21:22;;;;;;;16.15;6.38;;;;;12.90;94838.00;;;;7389507;19;20145;-77
2022/10/27 05:23:50;;;;;;;14.30;6.43;;;;;12.90;94847.00;;;;7390077;19;20145;-78
2022/10/27 05:26:17;;;;;;;15.68;6.13;;;;;13.00;94850.00;;;;7390313;19;20163;-77
2022/10/27 05:28:51;;;;;;;13.23;6.03;;;;;13.00;94846.00;;;;7391359;19;20205;-77
2022/10/27 05:31:21;;;;;;;14.65;6.03;;;;;12.90;94843.00;;;;7394865;19;20208;-79
2022/10/27 05:33:49;;;;;;;13.98;5.85;;;;;13.00;94847.00;;;;7390395;19;20619;-77
2022/10/27 05:36:23;;;;;;;16.13;6.47;;;;;13.00;94843.00;;;;7389764;19;20128;-77
2022/10/27 05:38:50;;;;;;;14.43;5.90;;;;;13.00;94834.00;;;;7391513;19;20641;-78
2022/10/27 05:41:18;;;;;;;10.27;5.80;;;;;13.00;94833.00;;;;7392491;19;20457;-76
2022/10/27 05:43:52;;;;;;;17.85;6.47;;;;;13.00;94840.00;;;;7392491;19;20157;-77
2022/10/27 05:46:19;;;;;;;11.07;5.63;;;;;13.00;94841.00;;;;7390684;19;20204;-75
2022/10/27 05:48:47;;;;;;;11.02;4.70;;;;;12.80;94840.00;;;;7392587;19;20595;-76
2022/10/27 05:51:23;;;;;;;18.13;4.82;;;;;12.80;94846.00;;;;7392502;19;20145;-77
2022/10/27 05:53:51;;;;;;;14.73;5.72;;;;;12.80;94842.00;;;;7390249;19;20496;-77
2022/10/27 05:56:26;;;;;;;16.17;5.68;;;;;12.80;94840.00;;;;7389644;19;20140;-77
2022/10/27 05:59:04;;;;;;;10.50;4.45;;;;;12.70;94849.00;;;;7394206;19;20141;-76
2022/10/27 06:01:32;;;;;;;12.55;4.82;;;;;12.80;94845.00;;;;7398093;19;20145;-78
2022/10/27 06:04:00;;;;;;;10.57;4.97;;;;;12.90;94850.00;;;;7401513;19;20619;-76
2022/10/27 06:06:41;;;;;;;10.65;3.92;;;;;12.90;94856.00;;;;7398812;19;20522;-76
2022/10/27 06:09:15;;;;;;;11.13;4.50;;;;;13.00;94852.00;;;;7400995;19;20149;-77
2022/10/27 06:11:49;;;;;;;9.32;4.07;;;;;13.00;94850.00;;;;7397977;19;20684;-77
2022/10/27 06:14:19;;;;;;;15.57;4.03;;;;;13.00;94854.00;;;;7402786;19;20249;-76
2022/10/27 06:16:48;;;;;;;8.48;4.53;;;;;12.90;94851.00;;;;7400467;19;20156;-77
2022/10/27 06:19:25;;;;;;;8.32;4.20;;;;;13.00;94850.00;;;;7400480;19;20615;-75
2022/10/27 06:21:52;;;;;;;9.25;3.67;;;;;13.10;94844.00;;;;7399224;19;20794;-75
2022/10/27 06:24:24;;;;;;;7.40;3.88;;;;;13.30;94842.00;;;;7399645;19;20149;-75
2022/10/27 06:27:02;;;;;;;8.70;3.35;;;;;13.30;94847.00;;;;7400118;19;20133;-76
2022/10/27 06:29:31;;;;;;;14.02;4.22;;;;;13.30;94837.00;;;;7399674;19;20540;-76
2022/10/27 06:31:58;;;;;;;10.60;3.70;;;;;13.40;94838.00;;;;7399433;19;20630;-76
2022/10/27 06:34:35;;;;;;;9.32;4.30;;;;;13.60;94837.00;;;;7398526;19;20612;-77
2022/10/27 06:37:05;;;;;;;15.90;4.20;;;;;13.50;94829.00;;;;7398558;19;20177;-76
2022/10/27 06:39:33;;;;;;;11.50;3.38;;;;;13.60;94838.00;;;;7395463;19;20173;-78
2022/10/27 06:42:10;;;;;;;15.75;3.63;;;;;13.80;94829.00;;;;7395362;19;20177;-79
2022/10/27 06:44:38;;;;;;;7.55;3.17;;;;;13.90;94833.00;;;;7392776;19;20152;-78
2022/10/27 06:47:05;;;;;;;12.35;3.67;;;;;14.00;94838.00;;;;7397004;19;20143;-76
2022/10/27 06:49:39;;;;;;;8.15;3.10;;;;;14.10;94840.00;;;;7398187;19;20160;-77
2022/10/27 06:52:06;;;;;;;9.98;3.00;;;;;14.20;94853.00;;;;7395009;19;20171;-77
2022/10/27 06:54:36;;;;;;;11.10;3.60;;;;;14.40;94850.00;;;;7397531;19;20125;-76
2022/10/27 06:57:11;;;;;;;8.45;2.75;;;;;14.50;94848.00;;;;7398698;19;20163;-77
2022/10/27 06:59:38;;;;;;;7.32;3.10;;;;;14.60;94851.00;;;;7396360;19;20129;-79
2022/10/27 07:02:06;;;;;;;5.68;2.60;;;;;14.60;94857.00;;;;7395611;19;20157;-79
2022/10/27 07:04:40;;;;;;;9.05;3.00;;;;;14.90;94856.00;;;;7398632;19;20140;-78
2022/10/27 07:07:14;;;;;;;5.25;2.45;;;;;14.90;94858.00;;;;7396453;19;20153;-78
2022/10/27 07:10:00;;;;;;;9.18;3.00;;;;;15.10;94858.00;;;;7395840;19;20232;-79
2022/10/27 07:12:34;;;;;;;9.57;2.95;;;;;15.20;94855.00;;;;7394893;19;20144;-77
2022/10/27 07:15:08;;;;;;;8.48;2.83;;;;;15.30;94856.00;;;;7397230;19;20220;-80
2022/10/27 07:17:36;;;;;;;10.30;3.05;;;;;15.50;94853.00;;;;7395506;19;20132;-80
2022/10/27 07:20:03;;;;;;;9.93;3.00;;;;;15.60;94859.00;;;;7398643;19;20196;-78
2022/10/27 07:22:40;;;;;;;7.72;2.72;;;;;15.70;94854.00;;;;7398517;19;20611;-82
2022/10/27 07:25:08;;;;;;;14.88;2.85;;;;;15.90;94858.00;;;;7396235;19;20253;-79
2022/10/27 07:27:35;;;;;;;14.50;3.25;;;;;15.90;94853.00;;;;7395730;19;20244;-78
2022/10/27 07:30:10;;;;;;;11.00;2.80;;;;;16.10;94862.00;;;;7399949;19;20173;-80
2022/10/27 07:32:37;;;;;;;5.55;2.63;;;;;16.20;94865.00;;;;7398457;19;20595;-80
2022/10/27 07:35:05;;;;;;;9.15;2.50;;;;;16.20;94874.00;;;;7397576;19;20176;-80
2022/10/27 07:37:45;;;;;;;7.03;2.85;;;;;16.40;94877.00;;;;7395140;19;20164;-79
2022/10/27 07:40:15;;;;;;;7.65;2.80;;;;;16.50;94877.00;;;;7390532;19;20594;-78
2022/10/27 07:42:55;;;;;;;8.35;2.10;;;;;16.60;94880.00;;;;7389379;19;20135;-76
2022/10/27 07:45:25;;;;;;;9.02;3.08;;;;;16.70;94885.00;;;;7380061;19;20144;-77
2022/10/27 07:47:59;;;;;;;10.88;2.90;;;;;16.90;94882.00;;;;7397210;19;20618;-79
2022/10/27 07:50:34;;;;;;;10.07;2.78;;;;;17.10;94893.00;;;;7395414;19;20484;-80
2022/10/27 07:53:08;;;;;;;11.18;2.40;;;;;17.40;94890.00;;;;7394293;19;20168;-80
2022/10/27 07:55:37;;;;;;;7.28;2.45;;;;;17.80;94886.00;;;;7393617;19;20141;-78
2022/10/27 07:58:12;;;;;;;13.65;2.58;;;;;18.00;94895.00;;;;7396121;19;20133;-78
2022/10/27 08:00:47;;;;;;;7.13;2.60;;;;;18.00;94892.00;;;;7394565;19;20156;-78
2022/10/27 08:03:20;;;;;;;9.82;2.65;;;;;18.10;94888.00;;;;7395403;19;20156;-79
2022/10/27 08:06:04;;;;;;;7.72;2.58;;;;;18.30;94882.00;;;;7395900;19;20141;-78
2022/10/27 08:08:38;;;;;;;6.18;1.95;;;;;18.40;94897.00;;;;7393844;19;20722;-81
2022/10/27 08:11:13;;;;;;;7.57;2.45;;;;;18.60;94890.00;;;;7396819;19;20148;-78
2022/10/27 08:13:41;;;;;;;9.07;3.13;;;;;18.90;94893.00;;;;7393115;19;20137;-78
2022/10/27 08:16:08;;;;;;;11.13;2.13;;;;;19.20;94887.00;;;;7393508;19;20541;-76
2022/10/27 08:18:42;;;;;;;5.97;2.10;;;;;19.40;94888.00;;;;7394827;19;20136;-78
2022/10/27 08:21:10;;;;;;;7.13;2.15;;;;;19.70;94892.00;;;;7392582;19;20145;-77
2022/10/27 08:23:38;;;;;;;6.93;2.97;;;;;20.10;94896.00;;;;7389398;19;20200;-78
2022/10/27 08:26:12;;;;;;;7.18;2.40;;;;;20.10;94893.00;;;;7390025;19;20626;-76
2022/10/27 08:28:39;;;;;;;5.22;2.38;;;;;20.40;94885.00;;;;7393912;19;20156;-78
2022/10/27 08:31:06;;;;;;;6.93;1.92;;;;;20.50;94898.00;;;;7395321;19;20624;-77
2022/10/27 08:33:43;;;;;;;3.10;1.65;;;;;20.40;94895.00;;;;7392860;19;20128;-76
2022/10/27 08:36:14;;;;;;;7.05;2.35;;;;;20.40;94903.00;;;;7392828;19;20208;-76
2022/10/27 08:38:41;;;;;;;8.55;2.50;;;;;20.40;94896.00;;;;7390694;19;20133;-77
2022/10/27 08:41:36;;;;;;;8.65;2.35;;;;;20.70;94898.00;;;;7384929;19;20129;-77
2022/10/27 08:44:04;;;;;;;6.18;2.25;;;;;21.00;94896.00;;;;7383650;19;20212;-78
2022/10/27 08:46:43;;;;;;;6.80;2.47;;;;;21.10;94905.00;;;;7375332;19;20148;-77
2022/10/27 08:49:30;;;;;;;9.32;2.20;;;;;20.90;94893.00;;;;7386458;19;20607;-77
2022/10/27 08:52:12;;;;;;;3.90;1.95;;;;;20.60;94890.00;;;;7380499;19;20682;-75
2022/10/27 08:54:44;;;;;;;7.38;2.28;;;;;21.00;94894.00;;;;7386869;19;20456;-76
2022/10/27 08:57:28;;;;;;;8.48;2.25;;;;;21.00;94897.00;;;;7387033;19;20141;-77
2022/10/27 08:59:59;;;;;;;5.90;1.80;;;;;21.10;94891.00;;;;7380866;19;20132;-76
2022/10/27 09:02:59;;;;;;;5.30;2.17;;;;;21.50;94897.00;;;;7380917;19;20132;-77
2022/10/27 09:05:49;;;;;;;7.60;2.33;;;;;21.70;94900.00;;;;7392622;19;20620;-75
2022/10/27 09:08:53;;;;;;;9.85;2.05;;;;;22.30;94903.00;;;;7392628;19;20635;-77
2022/10/27 09:11:29;;;;;;;6.80;2.15;;;;;22.70;94909.00;;;;7388048;19;20156;-78
2022/10/27 09:14:35;;;;;;;5.78;2.30;;;;;22.30;94904.00;;;;7392883;19;20160;-78
2022/10/27 09:17:11;;;;;;;8.20;2.10;;;;;22.50;94901.00;;;;7392392;19;20616;-76
2022/10/27 09:19:50;;;;;;;9.27;2.60;;;;;22.10;94889.00;;;;7391174;19;20211;-75
2022/10/27 09:22:23;;;;;;;6.75;2.03;;;;;22.20;94890.00;;;;7390374;19;20489;-77
2022/10/27 09:25:01;;;;;;;5.85;2.45;;;;;22.20;94887.00;;;;7391946;19;20159;-77
2022/10/27 09:27:29;;;;;;;5.32;2.22;;;;;22.60;94893.00;;;;7391232;19;20136;-77
2022/10/27 09:30:05;;;;;;;5.93;2.38;;;;;22.80;94886.00;;;;7395232;19;20605;-78
2022/10/27 09:32:41;;;;;;;7.10;2.10;;;;;22.30;94893.00;;;;7392893;19;20161;-77
2022/10/27 09:35:25;;;;;;;5.88;2.20;;;;;22.20;94890.00;;;;7388896;19;20155;-76
2022/10/27 09:37:55;;;;;;;6.10;2.00;;;;;22.10;94894.00;;;;7393277;19;20184;-77
2022/10/27 09:40:35;;;;;;;9.77;2.33;;;;;22.10;94892.00;;;;7394732;19;20216;-79
2022/10/27 09:43:03;;;;;;;3.40;1.67;;;;;22.40;94891.00;;;;7393772;19;20136;-78
2022/10/27 09:45:30;;;;;;;9.80;2.72;;;;;22.80;94897.00;;;;7389902;19;20147;-77
2022/10/27 09:48:07;;;;;;;6.43;2.30;;;;;22.90;94898.00;;;;7390998;19;20177;-78
2022/10/27 09:51:04;;;;;;;10.00;2.15;;;;;23.50;94900.00;;;;7394223;19;20596;-78
2022/10/27 09:53:43;;;;;;;3.20;1.92;;;;;23.80;94901.00;;;;7393038;19;20149;-79
2022/10/27 09:56:33;;;;;;;7.78;1.92;;;;;23.70;94895.00;;;;7390099;19;20216;-78
2022/10/27 09:59:17;;;;;;;6.45;2.28;;;;;24.00;94889.00;;;;7392468;19;20156;-77
2022/10/27 10:01:54;;;;;;;6.15;2.38;;;;;24.10;94889.00;;;;7392556;19;20152;-79
2022/10/27 10:04:34;;;;;;;6.97;3.00;;;;;24.10;94884.00;;;;7391945;19;20152;-78
2022/10/27 10:07:33;;;;;;;8.25;1.90;;;;;24.60;94887.00;;;;7388208;19;20484;-75
2022/10/27 10:10:24;;;;;;;8.00;2.20;;;;;24.80;94888.00;;;;7379668;19;20627;-76
2022/10/27 10:13:02;;;;;;;10.00;2.25;;;;;25.10;94890.00;;;;7390618;19;20160;-76
2022/10/27 10:15:45;;;;;;;4.93;2.20;;;;;25.30;94887.00;;;;7389847;19;20145;-78
2022/10/27 10:18:28;;;;;;;6.28;2.30;;;;;25.60;94884.00;;;;7391472;19;20128;-76
2022/10/27 10:21:13;;;;;;;11.82;2.30;;;;;25.30;94885.00;;;;7391382;19;20163;-79
2022/10/27 10:23:52;;;;;;;6.70;2.35;;;;;25.70;94888.00;;;;7389554;19;20145;-78
2022/10/27 10:26:28;;;;;;;5.55;2.55;;;;;26.10;94889.00;;;;7389631;19;20165;-79
2022/10/27 10:29:14;;;;;;;7.10;2.55;;;;;26.00;94890.00;;;;7392319;19;20616;-78
2022/10/27 10:31:48;;;;;;;10.73;2.75;;;;;26.10;94886.00;;;;7391548;19;20137;-78
2022/10/27 10:34:46;;;;;;;7.38;2.42;;;;;25.70;94896.00;;;;7390663;19;20204;-79
2022/10/27 10:37:31;;;;;;;13.45;2.83;;;;;25.70;94891.00;;;;7387884;19;20155;-80
2022/10/27 10:40:14;;;;;;;6.10;2.33;;;;;25.90;94895.00;;;;7388125;19;20144;-81
2022/10/27 10:42:59;;;;;;;6.25;2.50;;;;;25.90;94896.00;;;;7390160;19;20140;-79
2022/10/27 10:45:30;;;;;;;12.23;2.40;;;;;26.00;94896.00;;;;7386439;19;20152;-79
2022/10/27 10:48:30;;;;;;;5.88;2.10;;;;;25.80;94883.00;;;;7395656;19;20235;-79
2022/10/27 10:50:58;;;;;;;12.80;2.80;;;;;25.80;94893.00;;;;7397295;19;20245;-78
2022/10/27 10:53:37;;;;;;;4.63;2.40;;;;;26.40;94886.00;;;;7394035;19;20611;-79
2022/10/27 10:56:34;;;;;;;5.53;2.28;;;;;26.30;94888.00;;;;7396254;19;20616;-80
2022/10/27 10:59:21;;;;;;;7.30;2.63;;;;;26.40;94881.00;;;;7393989;19;20156;-76
2022/10/27 11:02:12;;;;;;;11.00;2.70;;;;;26.30;94876.00;;;;7393239;19;20519;-78
2022/10/27 11:04:46;;;;;;;9.93;2.55;;;;;26.80;94879.00;;;;7396940;19;20142;-80
2022/10/27 11:07:35;;;;;;;7.22;2.45;;;;;27.10;94877.00;;;;7395270;19;20196;-78
2022/10/27 11:10:21;;;;;;;7.57;2.40;;;;;26.80;94868.00;;;;7394106;19;20528;-77
2022/10/27 11:12:57;;;;;;;7.30;2.65;;;;;26.70;94873.00;;;;7397049;19;20153;-79
2022/10/27 11:15:34;;;;;;;5.20;2.40;;;;;27.00;94867.00;;;;7389207;19;20163;-81
2022/10/27 11:18:25;;;;;;;10.98;3.13;;;;;26.90;94876.00;;;;7392706;19;20172;-80
2022/10/27 11:21:05;;;;;;;10.70;2.78;;;;;26.70;94879.00;;;;7388845;19;20167;-79
2022/10/27 11:23:51;;;;;;;11.52;2.63;;;;;26.30;94878.00;;;;7394264;19;20714;-77
2022/10/27 11:26:35;;;;;;;7.32;2.72;;;;;26.50;94882.00;;;;7383349;19;20153;-76
2022/10/27 11:29:18;;;;;;;10.35;2.47;;;;;25.70;94875.00;;;;7393175;19;20180;-78
2022/10/27 11:32:16;;;;;;;5.80;2.50;;;;;26.00;94873.00;;;;7392783;19;20216;-78
2022/10/27 11:35:05;;;;;;;5.75;2.00;;;;;26.20;94877.00;;;;7395169;19;20153;-75
2022/10/27 11:38:04;;;;;;;7.75;2.83;;;;;26.30;94864.00;;;;7394188;19;20170;-77
2022/10/27 11:40:53;;;;;;;8.18;2.60;;;;;25.60;94860.00;;;;7385446;19;20144;-75
2022/10/27 11:43:51;;;;;;;6.88;2.42;;;;;26.00;94859.00;;;;7386386;19;20769;-77
2022/10/27 11:46:35;;;;;;;6.47;2.50;;;;;26.40;94870.00;;;;7396051;19;20600;-78
2022/10/27 11:49:35;;;;;;;7.85;2.60;;;;;26.50;94863.00;;;;7395852;19;20167;-79
2022/10/27 11:52:21;;;;;;;7.07;2.95;;;;;26.80;94857.00;;;;7393685;19;20253;-76
2022/10/27 11:54:57;;;;;;;5.75;2.70;;;;;26.50;94852.00;;;;7396973;19;20133;-78
2022/10/27 11:57:45;;;;;;;13.40;2.88;;;;;27.20;94850.00;;;;7396002;19;20136;-78
2022/10/27 12:00:22;;;;;;;6.43;2.35;;;;;26.90;94846.00;;;;7392032;19;20141;-77
2022/10/27 12:02:59;;;;;;;8.07;2.50;;;;;26.80;94848.00;;;;7396132;19;20153;-77
2022/10/27 12:06:01;;;;;;;7.43;2.45;;;;;26.70;94848.00;;;;7392889;19;20615;-79
2022/10/27 12:08:54;;;;;;;4.25;2.30;;;;;26.80;94846.00;;;;7392098;19;20179;-78
2022/10/27 12:11:50;;;;;;;9.73;2.63;;;;;26.10;94844.00;;;;7392287;19;20574;-78
2022/10/27 12:14:33;;;;;;;6.93;2.78;;;;;26.70;94844.00;;;;7391848;19;20148;-78
2022/10/27 12:17:26;;;;;;;9.93;2.70;;;;;26.80;94842.00;;;;7396447;19;20633;-79
2022/10/27 12:19:55;;;;;;;11.48;2.92;;;;;27.10;94842.00;;;;7396164;19;20144;-78
2022/10/27 12:22:52;;;;;;;6.10;2.60;;;;;27.50;94845.00;;;;7392221;19;20127;-77
2022/10/27 12:25:38;;;;;;;7.25;2.83;;;;;27.20;94839.00;;;;7392636;19;20599;-79
2022/10/27 12:28:14;;;;;;;7.38;3.25;;;;;27.10;94853.00;;;;7395338;19;20128;-78
2022/10/27 12:30:45;;;;;;;10.48;2.78;;;;;27.40;94840.00;;;;7393461;19;20157;-79
2022/10/27 12:33:32;;;;;;;8.48;3.17;;;;;27.60;94838.00;;;;7391020;19;20139;-79
2022/10/27 12:36:14;;;;;;;13.93;2.95;;;;;27.50;94840.00;;;;7394247;19;20236;-77
2022/10/27 12:39:15;;;;;;;7.82;2.95;;;;;27.80;94837.00;;;;7397786;19;20153;-79
2022/10/27 12:42:11;;;;;;;6.95;2.95;;;;;27.40;94840.00;;;;7395686;19;20150;-77
2022/10/27 12:45:15;;;;;;;6.65;2.78;;;;;26.80;94843.00;;;;7393567;19;20157;-76
2022/10/27 12:48:18;;;;;;;12.90;3.97;;;;;26.50;94846.00;;;;7393570;19;20584;-78
2022/10/27 12:51:13;;;;;;;11.15;3.15;;;;;25.90;94847.00;;;;7395596;19;20204;-78
2022/10/27 12:54:05;;;;;;;5.65;2.78;;;;;25.70;94845.00;;;;7391812;19;20125;-80
2022/10/27 12:56:44;;;;;;;12.55;3.05;;;;;26.40;94847.00;;;;7388988;19;20823;-78
2022/10/27 12:59:34;;;;;;;9.73;2.92;;;;;26.50;94838.00;;;;7392929;19;20165;-78
2022/10/27 13:02:11;;;;;;;7.13;2.88;;;;;26.90;94827.00;;;;7394609;19;20149;-79